Time;durP1;ratioP1;P1;durP2;ratioP2;P2;SDS_P1;SDS_P2;PMS_P1;PMS_P2;Temp;Humidity;BMP_temperature;BMP_pressure;BME280_temperature;BME280_humidity;BME280_pressure;Samples;Min_cycle;Max_cycle;Signal;HPM_P1;HPM_P2
2023/02/07 00:01:47;;;;;;;;;;;;;;;-3.76;100.00;98090.28;5042024;28;19924;-69
2023/02/07 00:04:12;;;;;;;;;;;;;;;-3.87;100.00;98108.03;5039218;28;20328;-71
2023/02/07 00:06:38;;;;;;;;;;;;;;;-3.85;100.00;98105.94;5063647;28;19920;-71
2023/02/07 00:09:04;;;;;;;;;;;;;;;-3.84;100.00;98107.56;5058852;28;20427;-71
2023/02/07 00:11:30;;;;;;;;;;;;;;;-3.86;100.00;98107.00;5063456;28;19916;-71
2023/02/07 00:13:56;;;;;;;;;;;;;;;-3.84;100.00;98104.88;5039825;28;19917;-68
2023/02/07 00:16:22;;;;;;;;;;;;;;;-3.75;100.00;98110.69;5036789;28;19921;-71
2023/02/07 00:18:47;;;;;;;;;;;;;;;-3.72;100.00;98104.84;5043477;28;20431;-71
2023/02/07 00:21:14;;;;;;;;;;;;;;;-3.67;100.00;98113.78;5038068;28;19955;-71
2023/02/07 00:23:40;;;;;;;;;;;;;;;-3.69;100.00;98123.94;5024335;28;20320;-71
2023/02/07 00:26:06;;;;;;;;;;;;;;;-3.70;100.00;98114.25;5036415;28;19923;-71
2023/02/07 00:28:31;;;;;;;;;;;;;;;-3.71;100.00;98109.97;5056185;28;19916;-71
2023/02/07 00:31:09;;;;;;;;;;;;;;;-3.72;100.00;98091.47;5047374;28;20393;-71
2023/02/07 00:33:35;;;;;;;;;;;;;;;-3.78;100.00;98092.41;5039851;28;19924;-70
2023/02/07 00:36:01;;;;;;;;;;;;;;;-3.78;100.00;98108.47;5025529;28;19951;-71
2023/02/07 00:38:26;;;;;;;;;;;;;;;-3.78;100.00;98082.53;5040593;28;19924;-71
2023/02/07 00:40:52;;;;;;;;;;;;;;;-3.84;100.00;98094.19;5044002;28;19920;-70
2023/02/07 00:43:17;;;;;;;;;;;;;;;-3.89;100.00;98097.59;5057886;28;20456;-69
2023/02/07 00:45:42;;;;;;;;;;;;;;;-3.92;100.00;98091.91;5061668;28;20419;-70
2023/02/07 00:48:08;;;;;;;;;;;;;;;-3.93;100.00;98091.06;5057697;28;20007;-70
2023/02/07 00:50:33;;;;;;;;;;;;;;;-3.92;100.00;98089.22;5062012;28;20366;-69
2023/02/07 00:52:59;;;;;;;;;;;;;;;-3.92;100.00;98094.56;5061536;28;19916;-69
2023/02/07 00:55:24;;;;;;;;;;;;;;;-3.94;100.00;98097.50;5057043;28;19959;-70
2023/02/07 00:57:49;;;;;;;;;;;;;;;-3.98;100.00;98080.28;5061676;28;19917;-69
2023/02/07 01:00:15;;;;;;;;;;;;;;;-3.99;100.00;98080.53;5057359;28;19924;-69
2023/02/07 01:02:40;;;;;;;;;;;;;;;-3.95;100.00;98085.13;5061838;28;19967;-69
2023/02/07 01:05:06;;;;;;;;;;;;;;;-3.98;100.00;98096.34;5059256;28;19924;-68
2023/02/07 01:07:32;;;;;;;;;;;;;;;-3.95;100.00;98084.34;5066549;28;19916;-70
2023/02/07 01:09:57;;;;;;;;;;;;;;;-4.00;100.00;98093.06;5066551;28;19943;-70
2023/02/07 01:12:22;;;;;;;;;;;;;;;-3.99;100.00;98097.38;5061148;28;20427;-70
2023/02/07 01:14:48;;;;;;;;;;;;;;;-4.07;100.00;98063.78;5065011;28;19987;-70
2023/02/07 01:17:13;;;;;;;;;;;;;;;-4.00;100.00;98082.38;5052941;28;19921;-70
2023/02/07 01:19:38;;;;;;;;;;;;;;;-4.01;100.00;98090.66;5045756;28;19917;-70
2023/02/07 01:22:04;;;;;;;;;;;;;;;-3.96;100.00;98094.25;5042609;28;20011;-71
2023/02/07 01:24:30;;;;;;;;;;;;;;;-3.99;100.00;98093.91;5048648;28;19970;-70
2023/02/07 01:26:55;;;;;;;;;;;;;;;-3.99;100.00;98073.28;5045568;28;20008;-70
2023/02/07 01:29:20;;;;;;;;;;;;;;;-4.01;100.00;98106.72;5049281;28;20113;-70
2023/02/07 01:31:46;;;;;;;;;;;;;;;-4.05;100.00;98101.81;5051775;28;20034;-69
2023/02/07 01:34:12;;;;;;;;;;;;;;;-4.06;100.00;98094.03;5040652;28;19916;-69
2023/02/07 01:36:37;;;;;;;;;;;;;;;-4.11;100.00;98100.09;5051774;28;20032;-69
2023/02/07 01:39:03;;;;;;;;;;;;;;;-4.08;100.00;98102.28;5041548;28;20357;-69
2023/02/07 01:41:29;;;;;;;;;;;;;;;-4.10;100.00;98101.72;5059440;28;19970;-70
2023/02/07 01:44:04;;;;;;;;;;;;;;;-4.08;100.00;98090.78;5046080;28;20007;-70
2023/02/07 01:46:30;;;;;;;;;;;;;;;-4.07;100.00;98105.78;5032326;28;19971;-69
2023/02/07 01:48:57;;;;;;;;;;;;;;;-4.10;100.00;98114.31;5026387;28;19928;-70
2023/02/07 01:51:23;;;;;;;;;;;;;;;-4.13;100.00;98128.94;5020861;28;19982;-70
2023/02/07 01:53:49;;;;;;;;;;;;;;;-4.12;100.00;98132.47;5033453;28;19917;-70
2023/02/07 01:56:15;;;;;;;;;;;;;;;-4.12;100.00;98129.78;5021935;28;19929;-70
2023/02/07 01:58:41;;;;;;;;;;;;;;;-4.10;100.00;98125.00;5024572;28;20378;-69
2023/02/07 02:01:09;;;;;;;;;;;;;;;-4.15;100.00;98124.91;5021084;28;19932;-71
2023/02/07 02:03:36;;;;;;;;;;;;;;;-4.09;100.00;98123.94;5048948;28;19916;-68
2023/02/07 02:06:02;;;;;;;;;;;;;;;-4.14;100.00;98126.50;5064503;28;19928;-68
2023/02/07 02:08:27;;;;;;;;;;;;;;;-4.11;100.00;98139.41;5061782;28;19923;-69
2023/02/07 02:11:06;;;;;;;;;;;;;;;-4.16;100.00;98133.97;5065259;28;19921;-69
2023/02/07 02:13:37;;;;;;;;;;;;;;;-4.15;100.00;98136.41;5064105;28;19984;-68
2023/02/07 02:16:06;;;;;;;;;;;;;;;-4.16;100.00;98131.28;5042854;28;19924;-71
2023/02/07 02:18:42;;;;;;;;;;;;;;;-4.14;100.00;98124.66;5064736;28;19924;-71
2023/02/07 02:21:08;;;;;;;;;;;;;;;-4.22;100.00;98120.47;5059586;28;20280;-71
2023/02/07 02:23:33;;;;;;;;;;;;;;;-4.18;100.00;98136.88;5064869;28;20036;-70
2023/02/07 02:25:58;;;;;;;;;;;;;;;-4.23;100.00;98140.25;5052175;28;19917;-68
2023/02/07 02:28:42;;;;;;;;;;;;;;;-4.28;100.00;98147.38;5037765;28;19917;-71
2023/02/07 02:31:17;;;;;;;;;;;;;;;-4.29;100.00;98149.22;5045061;28;19916;-70
2023/02/07 02:33:44;;;;;;;;;;;;;;;-4.33;100.00;98133.88;5026382;28;19927;-70
2023/02/07 02:36:25;;;;;;;;;;;;;;;-4.38;100.00;98134.56;5038211;28;20370;-70
2023/02/07 02:39:09;;;;;;;;;;;;;;;-4.37;100.00;98117.50;5046437;28;19931;-70
2023/02/07 02:41:45;;;;;;;;;;;;;;;-4.35;100.00;98119.94;5023458;28;20004;-68
2023/02/07 02:44:14;;;;;;;;;;;;;;;-4.33;100.00;98123.19;5017550;28;20000;-69
2023/02/07 02:46:40;;;;;;;;;;;;;;;-4.36;100.00;98127.13;5023198;28;19923;-70
2023/02/07 02:49:07;;;;;;;;;;;;;;;-4.36;100.00;98127.13;5018727;28;19917;-68
2023/02/07 02:51:33;;;;;;;;;;;;;;;-4.36;100.00;98124.44;5026747;28;20346;-69
2023/02/07 02:53:59;;;;;;;;;;;;;;;-4.35;100.00;98133.31;5026796;28;20022;-68
2023/02/07 02:56:48;;;;;;;;;;;;;;;-4.39;100.00;98145.50;5019804;28;19921;-68
2023/02/07 02:59:28;;;;;;;;;;;;;;;-4.39;100.00;98141.00;5018057;28;19923;-68
2023/02/07 03:01:59;;;;;;;;;;;;;;;-4.40;100.00;98154.59;5033765;28;20297;-69
2023/02/07 03:04:28;;;;;;;;;;;;;;;-4.39;100.00;98149.00;5042206;28;19971;-69
2023/02/07 03:06:59;;;;;;;;;;;;;;;-4.41;100.00;98161.81;5047302;28;20423;-68
2023/02/07 03:09:43;;;;;;;;;;;;;;;-4.42;100.00;98165.53;5041459;28;19916;-69
2023/02/07 03:12:19;;;;;;;;;;;;;;;-4.46;100.00;98149.13;5039848;28;20003;-68
2023/02/07 03:14:44;;;;;;;;;;;;;;;-4.52;100.00;98166.13;5044113;28;19923;-69
2023/02/07 03:17:16;;;;;;;;;;;;;;;-4.50;100.00;98141.78;5038000;28;20015;-68
2023/02/07 03:19:41;;;;;;;;;;;;;;;-4.52;100.00;98160.78;5044716;28;19921;-69
2023/02/07 03:22:10;;;;;;;;;;;;;;;-4.48;100.00;98179.84;5038717;28;20305;-68
2023/02/07 03:24:37;;;;;;;;;;;;;;;-4.52;100.00;98158.09;5057601;28;19917;-68
2023/02/07 03:27:05;;;;;;;;;;;;;;;-4.49;100.00;98172.84;5040325;28;19917;-70
2023/02/07 03:29:31;;;;;;;;;;;;;;;-4.52;100.00;98170.63;5035066;28;19972;-69
2023/02/07 03:31:59;;;;;;;;;;;;;;;-4.52;100.00;98173.31;5043084;28;20362;-69
2023/02/07 03:34:44;;;;;;;;;;;;;;;-4.56;100.00;98178.31;5039233;28;20240;-69
2023/02/07 03:37:16;;;;;;;;;;;;;;;-4.58;100.00;98180.41;5030582;28;19921;-69
2023/02/07 03:39:41;;;;;;;;;;;;;;;-4.55;100.00;98182.63;5043273;28;19925;-69
2023/02/07 03:42:13;;;;;;;;;;;;;;;-4.55;100.00;98196.00;5039661;28;20266;-70
2023/02/07 03:44:40;;;;;;;;;;;;;;;-4.57;100.00;98199.94;5044201;28;20286;-69
2023/02/07 03:47:06;;;;;;;;;;;;;;;-4.57;100.00;98194.56;5038665;28;19916;-68
2023/02/07 03:49:31;;;;;;;;;;;;;;;-4.58;100.00;98209.81;5043354;28;19917;-69
2023/02/07 03:51:56;;;;;;;;;;;;;;;-4.58;100.00;98209.00;5043192;28;19929;-69
2023/02/07 03:54:21;;;;;;;;;;;;;;;-4.59;100.00;98218.91;5039893;28;19916;-69
2023/02/07 03:56:48;;;;;;;;;;;;;;;-4.67;100.00;98217.34;5043049;28;20000;-69
2023/02/07 03:59:13;;;;;;;;;;;;;;;-4.68;100.00;98215.75;5028298;28;20390;-69
2023/02/07 04:01:41;;;;;;;;;;;;;;;-4.68;100.00;98228.28;5041750;28;20012;-69
2023/02/07 04:04:10;;;;;;;;;;;;;;;-4.70;100.00;98230.38;5044078;28;19944;-69
2023/02/07 04:06:35;;;;;;;;;;;;;;;-4.73;100.00;98233.53;5047658;28;19925;-68
2023/02/07 04:09:01;;;;;;;;;;;;;;;-4.75;100.00;98228.41;5048037;28;19921;-68
2023/02/07 04:11:26;;;;;;;;;;;;;;;-4.75;100.00;98243.59;5048324;28;19916;-68
2023/02/07 04:13:52;;;;;;;;;;;;;;;-4.81;100.00;98234.66;5052832;28;20365;-69
2023/02/07 04:16:17;;;;;;;;;;;;;;;-4.77;100.00;98229.66;5043045;28;19932;-69
2023/02/07 04:18:43;;;;;;;;;;;;;;;-4.79;100.00;98229.88;5048397;28;19980;-69
2023/02/07 04:21:08;;;;;;;;;;;;;;;-4.82;100.00;98228.50;5042615;28;20306;-69
2023/02/07 04:23:33;;;;;;;;;;;;;;;-4.79;100.00;98240.59;5049678;28;19974;-69
2023/02/07 04:25:59;;;;;;;;;;;;;;;-4.80;100.00;98231.75;5033821;28;19921;-68
2023/02/07 04:28:25;;;;;;;;;;;;;;;-4.78;100.00;98220.84;5003985;28;19980;-70
2023/02/07 04:30:50;;;;;;;;;;;;;;;-4.87;100.00;98241.72;5043143;28;20019;-69
2023/02/07 04:33:15;;;;;;;;;;;;;;;-4.84;100.00;98225.25;5026241;28;19917;-69
2023/02/07 04:35:41;;;;;;;;;;;;;;;-4.91;100.00;98213.03;5051524;28;19916;-70
2023/02/07 04:38:06;;;;;;;;;;;;;;;-4.91;100.00;98221.06;5045496;28;20362;-70
2023/02/07 04:40:31;;;;;;;;;;;;;;;-4.93;100.00;98217.78;5032544;28;20405;-69
2023/02/07 04:42:57;;;;;;;;;;;;;;;-4.93;100.00;98213.25;5025569;28;19917;-69
2023/02/07 04:45:22;;;;;;;;;;;;;;;-4.93;100.00;98209.75;5019845;28;19940;-69
2023/02/07 04:47:47;;;;;;;;;;;;;;;-4.96;100.00;98213.72;5023913;28;19928;-70
2023/02/07 04:50:13;;;;;;;;;;;;;;;-4.95;100.00;98222.53;5034564;28;19924;-70
2023/02/07 04:52:40;;;;;;;;;;;;;;;-4.95;100.00;98212.69;5045726;28;20388;-70
2023/02/07 04:55:06;;;;;;;;;;;;;;;-4.87;100.00;98223.03;5040924;28;19917;-70
2023/02/07 04:57:31;;;;;;;;;;;;;;;-4.93;100.00;98229.31;5043744;28;19982;-70
2023/02/07 04:59:56;;;;;;;;;;;;;;;-4.92;100.00;98227.44;5040527;28;19923;-69
2023/02/07 05:02:21;;;;;;;;;;;;;;;-4.98;100.00;98233.72;5036987;28;19927;-69
2023/02/07 05:04:47;;;;;;;;;;;;;;;-4.84;100.00;98237.81;5043547;28;19920;-69
2023/02/07 05:07:12;;;;;;;;;;;;;;;-4.86;100.00;98240.72;5037166;28;19921;-69
2023/02/07 05:09:37;;;;;;;;;;;;;;;-4.89;100.00;98240.34;5042140;28;19921;-69
2023/02/07 05:12:03;;;;;;;;;;;;;;;-4.89;100.00;98240.34;5040417;28;19917;-70
2023/02/07 05:14:28;;;;;;;;;;;;;;;-4.89;100.00;98240.34;5039788;28;20289;-69
2023/02/07 05:16:53;;;;;;;;;;;;;;;-4.93;100.00;98239.16;5042075;28;19994;-69
2023/02/07 05:19:19;;;;;;;;;;;;;;;-4.97;100.00;98232.66;5035743;28;19925;-68
2023/02/07 05:21:44;;;;;;;;;;;;;;;-4.95;100.00;98230.56;5041682;28;19917;-68
2023/02/07 05:24:09;;;;;;;;;;;;;;;-4.98;100.00;98226.50;5036009;28;19917;-68
2023/02/07 05:26:34;;;;;;;;;;;;;;;-4.96;100.00;98235.09;5040223;28;20337;-68
2023/02/07 05:29:00;;;;;;;;;;;;;;;-5.02;100.00;98239.50;5022243;28;19917;-69
2023/02/07 05:33:02;;;;;;;;;;;;;;;-5.00;100.00;98240.09;5016674;28;20631;-68
2023/02/07 05:34:10;;;;;;;;;;;;;;;-4.96;100.00;98227.06;5018649;28;19917;-68
2023/02/07 05:36:35;;;;;;;;;;;;;;;-4.96;100.00;98232.41;5021055;28;20283;-69
2023/02/07 05:39:01;;;;;;;;;;;;;;;-4.93;100.00;98220.44;5021616;28;20306;-69
2023/02/07 05:41:26;;;;;;;;;;;;;;;-4.92;100.00;98224.75;5016904;28;19917;-69
2023/02/07 05:43:52;;;;;;;;;;;;;;;-4.98;100.00;98221.16;5020008;28;19960;-67
2023/02/07 05:46:17;;;;;;;;;;;;;;;-4.97;100.00;98221.97;5016516;28;19925;-68
2023/02/07 05:48:42;;;;;;;;;;;;;;;-4.96;100.00;98224.41;5022262;28;19925;-68
2023/02/07 05:51:07;;;;;;;;;;;;;;;-4.94;100.00;98225.00;5035212;28;19933;-70
2023/02/07 05:53:33;;;;;;;;;;;;;;;-4.92;100.00;98222.91;5044439;28;20053;-70
2023/02/07 05:55:58;;;;;;;;;;;;;;;-4.92;100.00;98217.53;5044535;28;19924;-70
2023/02/07 05:58:23;;;;;;;;;;;;;;;-4.96;100.00;98226.28;5021692;28;20512;-70
2023/02/07 06:00:49;;;;;;;;;;;;;;;-4.99;100.00;98230.19;5043959;28;19997;-68
2023/02/07 06:03:14;;;;;;;;;;;;;;;-4.98;100.00;98229.16;5039723;28;19923;-70
2023/02/07 06:05:40;;;;;;;;;;;;;;;-4.96;100.00;98227.06;5044870;28;19921;-69
2023/02/07 06:08:07;;;;;;;;;;;;;;;-4.96;100.00;98226.28;5038778;28;20420;-69
2023/02/07 06:10:33;;;;;;;;;;;;;;;-4.96;100.00;98227.06;5044164;28;19960;-69
2023/02/07 06:12:58;;;;;;;;;;;;;;;-4.95;100.00;98233.22;5044496;28;20018;-68
2023/02/07 06:15:23;;;;;;;;;;;;;;;-4.91;100.00;98224.53;5040194;28;19928;-70
2023/02/07 06:17:49;;;;;;;;;;;;;;;-4.92;100.00;98222.91;5042737;28;19924;-70
2023/02/07 06:20:14;;;;;;;;;;;;;;;-4.95;100.00;98225.22;5039928;28;19978;-71
2023/02/07 06:22:40;;;;;;;;;;;;;;;-4.96;100.00;98228.94;5025046;28;20328;-72
2023/02/07 06:25:10;;;;;;;;;;;;;;;-4.97;100.00;98233.44;5039154;28;20019;-72
2023/02/07 06:27:36;;;;;;;;;;;;;;;-4.96;100.00;98231.63;5045040;28;19925;-71
2023/02/07 06:30:01;;;;;;;;;;;;;;;-4.89;100.00;98241.16;5035697;28;19923;-70
2023/02/07 06:32:26;;;;;;;;;;;;;;;-4.88;100.00;98245.47;5034246;28;20308;-70
2023/02/07 06:34:52;;;;;;;;;;;;;;;-4.81;100.00;98259.56;5024665;28;19920;-72
2023/02/07 06:37:17;;;;;;;;;;;;;;;-4.83;100.00;98256.25;5020890;28;19925;-72
2023/02/07 06:39:42;;;;;;;;;;;;;;;-4.85;100.00;98261.03;5035260;28;19921;-72
2023/02/07 06:42:08;;;;;;;;;;;;;;;-4.83;100.00;98266.16;5018545;28;19928;-71
2023/02/07 06:44:33;;;;;;;;;;;;;;;-4.87;100.00;98264.97;5023084;28;19924;-71
2023/02/07 06:46:58;;;;;;;;;;;;;;;-4.92;100.00;98259.50;5023562;28;20397;-70
2023/02/07 06:49:24;;;;;;;;;;;;;;;-4.87;100.00;98271.13;5019224;28;19944;-69
2023/02/07 06:51:49;;;;;;;;;;;;;;;-4.90;100.00;98266.25;5023710;28;19963;-70
2023/02/07 06:54:14;;;;;;;;;;;;;;;-4.99;100.00;98267.59;5020261;28;19921;-71
2023/02/07 06:56:40;;;;;;;;;;;;;;;-4.98;100.00;98265.78;5025483;28;19928;-69
2023/02/07 06:59:05;;;;;;;;;;;;;;;-5.00;100.00;98256.13;5019070;28;19924;-69
2023/02/07 07:01:30;;;;;;;;;;;;;;;-5.03;100.00;98245.06;5027222;28;19916;-70
2023/02/07 07:03:56;;;;;;;;;;;;;;;-5.03;100.00;98253.88;5043294;28;20066;-70
2023/02/07 07:06:21;;;;;;;;;;;;;;;-5.05;100.00;98247.16;5039242;28;20675;-70
2023/02/07 07:08:46;;;;;;;;;;;;;;;-5.05;100.00;98229.25;5050909;28;20027;-70
2023/02/07 07:11:12;;;;;;;;;;;;;;;-5.03;100.00;98247.75;5060218;28;19924;-70
2023/02/07 07:13:37;;;;;;;;;;;;;;;-4.97;100.00;98251.34;5070017;28;19915;-69
2023/02/07 07:16:02;;;;;;;;;;;;;;;-4.95;100.00;98254.59;5031873;28;19925;-69
2023/02/07 07:18:28;;;;;;;;;;;;;;;-4.81;100.00;98256.03;5041072;28;19924;-70
2023/02/07 07:20:54;;;;;;;;;;;;;;;-4.89;100.00;98270.56;5044015;28;19917;-70
2023/02/07 07:23:19;;;;;;;;;;;;;;;-4.90;100.00;98271.59;5039362;28;20431;-70
2023/02/07 07:25:44;;;;;;;;;;;;;;;-4.83;100.00;98283.00;5043622;28;19920;-70
2023/02/07 07:28:10;;;;;;;;;;;;;;;-4.68;100.00;98282.59;5021760;28;19966;-70
2023/02/07 07:30:35;;;;;;;;;;;;;;;-4.27;100.00;98286.25;5043152;28;20294;-70
2023/02/07 07:33:00;;;;;;;;;;;;;;;-4.02;100.00;98282.53;5042486;28;19923;-70
2023/02/07 07:35:27;;;;;;;;;;;;;;;-3.67;100.00;98295.09;5039527;28;20015;-70
2023/02/07 07:37:52;;;;;;;;;;;;;;;-3.52;100.00;98282.00;5044077;28;19932;-70
2023/02/07 07:40:18;;;;;;;;;;;;;;;-3.55;100.00;98301.19;5039446;28;19925;-70
2023/02/07 07:42:43;;;;;;;;;;;;;;;-3.33;100.00;98287.19;5043134;28;20035;-69
2023/02/07 07:45:09;;;;;;;;;;;;;;;-3.21;100.00;98298.69;5037882;28;19974;-69
2023/02/07 07:47:35;;;;;;;;;;;;;;;-3.07;98.98;98293.88;5042847;28;19921;-70
2023/02/07 07:50:00;;;;;;;;;;;;;;;-2.45;95.46;98285.03;5043548;28;19923;-70
2023/02/07 07:52:25;;;;;;;;;;;;;;;-3.17;98.09;98278.41;5038984;28;19920;-70
2023/02/07 07:54:50;;;;;;;;;;;;;;;-3.22;100.00;98283.66;5041980;28;20524;-70
2023/02/07 07:57:16;;;;;;;;;;;;;;;-3.03;98.47;98294.19;5038983;28;19921;-70
2023/02/07 07:59:41;;;;;;;;;;;;;;;-2.90;96.86;98299.25;5044338;28;19917;-70
2023/02/07 08:02:08;;;;;;;;;;;;;;;-2.70;98.54;98301.53;5042943;28;19956;-70
2023/02/07 08:04:33;;;;;;;;;;;;;;;-2.73;94.95;98297.44;5045782;28;19916;-71
2023/02/07 08:06:59;;;;;;;;;;;;;;;-2.80;97.15;98304.81;5045727;28;20031;-70
2023/02/07 08:09:24;;;;;;;;;;;;;;;-2.72;97.00;98301.75;5049145;28;19927;-70
2023/02/07 08:11:50;;;;;;;;;;;;;;;-2.79;97.98;98306.47;5058484;28;19920;-70
2023/02/07 08:14:15;;;;;;;;;;;;;;;-2.21;96.33;98314.41;5057211;28;20019;-70
2023/02/07 08:16:40;;;;;;;;;;;;;;;-2.42;93.72;98319.44;5062641;28;19925;-70
2023/02/07 08:19:06;;;;;;;;;;;;;;;-2.24;94.65;98307.66;5057826;28;19978;-70
2023/02/07 08:21:31;;;;;;;;;;;;;;;-2.63;95.02;98309.41;5061878;28;19962;-69
2023/02/07 08:23:56;;;;;;;;;;;;;;;-1.85;90.81;98314.97;5061452;28;20388;-70
2023/02/07 08:26:22;;;;;;;;;;;;;;;-1.76;90.76;98314.28;5058368;28;20359;-70
2023/02/07 08:28:48;;;;;;;;;;;;;;;-2.31;92.67;98305.09;5061852;28;19920;-73
2023/02/07 08:31:13;;;;;;;;;;;;;;;-2.15;91.08;98314.22;5037174;28;19916;-71
2023/02/07 08:33:38;;;;;;;;;;;;;;;-1.91;89.50;98306.00;5041677;28;19923;-70
2023/02/07 08:36:07;;;;;;;;;;;;;;;-2.09;90.96;98306.25;5037391;28;20396;-70
2023/02/07 08:38:32;;;;;;;;;;;;;;;-2.19;93.42;98297.00;5041783;28;19925;-70
2023/02/07 08:40:57;;;;;;;;;;;;;;;-2.04;90.68;98306.34;5043939;28;20389;-69
2023/02/07 08:43:23;;;;;;;;;;;;;;;-1.10;88.27;98308.13;5055520;28;20802;-70
2023/02/07 08:45:48;;;;;;;;;;;;;;;-0.94;84.76;98305.63;5062349;28;19920;-69
2023/02/07 08:48:14;;;;;;;;;;;;;;;-1.73;87.89;98319.16;5057585;28;19939;-69
2023/02/07 08:50:39;;;;;;;;;;;;;;;-1.87;91.49;98327.78;5060935;28;19917;-71
2023/02/07 08:53:05;;;;;;;;;;;;;;;-0.66;85.57;98315.34;5056963;28;19972;-70
2023/02/07 08:55:30;;;;;;;;;;;;;;;-1.48;86.88;98320.56;5062366;28;20365;-71
2023/02/07 08:57:56;;;;;;;;;;;;;;;-1.40;88.80;98327.41;5062361;28;19974;-71
2023/02/07 09:00:21;;;;;;;;;;;;;;;-1.35;88.65;98319.41;5057052;28;19954;-71
2023/02/07 09:02:46;;;;;;;;;;;;;;;-1.83;88.98;98319.00;5046639;28;19924;-71
2023/02/07 09:05:12;;;;;;;;;;;;;;;-1.76;88.31;98321.53;5037170;28;19970;-71
2023/02/07 09:07:37;;;;;;;;;;;;;;;-1.05;86.09;98327.00;5041325;28;19925;-70
2023/02/07 09:10:05;;;;;;;;;;;;;;;-0.94;84.88;98319.88;5056317;28;19916;-69
2023/02/07 09:12:31;;;;;;;;;;;;;;;-0.52;80.90;98321.09;5061811;28;20341;-71
2023/02/07 09:14:56;;;;;;;;;;;;;;;-1.53;84.10;98320.53;5044096;28;19923;-71
2023/02/07 09:17:22;;;;;;;;;;;;;;;-1.41;87.71;98325.75;5056805;28;20579;-70
2023/02/07 09:19:47;;;;;;;;;;;;;;;-1.50;86.35;98324.56;5061205;28;19923;-70
2023/02/07 09:22:12;;;;;;;;;;;;;;;-1.69;87.32;98332.91;5056967;28;19923;-70
2023/02/07 09:24:38;;;;;;;;;;;;;;;-1.88;88.71;98327.00;5061376;28;19927;-71
2023/02/07 09:27:03;;;;;;;;;;;;;;;-1.88;88.42;98329.69;5060289;28;19916;-70
2023/02/07 09:29:28;;;;;;;;;;;;;;;-1.51;89.15;98337.19;5059215;28;20314;-70
2023/02/07 09:31:54;;;;;;;;;;;;;;;-1.35;90.01;98336.34;5053578;28;19928;-70
2023/02/07 09:34:19;;;;;;;;;;;;;;;-1.08;87.12;98335.59;5039857;28;20066;-71
2023/02/07 09:36:44;;;;;;;;;;;;;;;-1.37;86.91;98338.47;5044975;28;19932;-70
2023/02/07 09:39:10;;;;;;;;;;;;;;;-1.43;85.82;98341.34;5041878;28;19932;-70
2023/02/07 09:41:55;;;;;;;;;;;;;;;-0.79;83.45;98338.09;5044926;28;19921;-70
2023/02/07 09:44:24;;;;;;;;;;;;;;;-1.23;86.70;98346.16;5040647;28;20286;-70
2023/02/07 09:47:02;;;;;;;;;;;;;;;-1.21;85.79;98344.03;5066102;28;20404;-70
2023/02/07 09:49:37;;;;;;;;;;;;;;;-1.62;86.31;98344.31;5059860;28;20012;-71
2023/02/07 09:52:04;;;;;;;;;;;;;;;-1.07;84.55;98353.34;5043812;28;19921;-69
2023/02/07 09:54:36;;;;;;;;;;;;;;;-0.96;85.42;98338.94;5044399;28;20270;-73
2023/02/07 09:57:04;;;;;;;;;;;;;;;-1.36;84.50;98342.75;5044899;28;19936;-70
2023/02/07 09:59:37;;;;;;;;;;;;;;;-1.46;85.05;98348.03;5043924;28;19924;-70
2023/02/07 10:02:12;;;;;;;;;;;;;;;-1.00;85.69;98339.72;5049398;28;19916;-70
2023/02/07 10:04:40;;;;;;;;;;;;;;;-0.73;83.65;98347.03;5064314;28;20016;-70
2023/02/07 10:07:09;;;;;;;;;;;;;;;-1.36;86.18;98352.72;5058918;28;19924;-70
2023/02/07 10:09:38;;;;;;;;;;;;;;;-0.56;84.23;98347.72;5050897;28;19924;-70
2023/02/07 10:12:22;;;;;;;;;;;;;;;-0.78;85.25;98350.44;5040487;28;19917;-68
2023/02/07 10:15:00;;;;;;;;;;;;;;;-0.96;82.99;98367.72;5044798;28;19927;-70
2023/02/07 10:17:26;;;;;;;;;;;;;;;-0.87;85.78;98370.78;5039858;28;19928;-71
2023/02/07 10:19:51;;;;;;;;;;;;;;;-1.23;85.77;98364.97;5045122;28;20297;-70
2023/02/07 10:22:16;;;;;;;;;;;;;;;-0.78;85.64;98362.03;5039127;28;20646;-70
2023/02/07 10:24:50;;;;;;;;;;;;;;;-1.12;86.29;98369.41;5044285;28;19920;-71
2023/02/07 10:27:22;;;;;;;;;;;;;;;-1.09;84.94;98374.31;5022224;28;19917;-70
2023/02/07 10:29:50;;;;;;;;;;;;;;;-0.97;86.92;98374.19;5045293;28;19983;-71
2023/02/07 10:32:42;;;;;;;;;;;;;;;-0.57;83.67;98372.22;5048440;28;19924;-71
2023/02/07 10:35:17;;;;;;;;;;;;;;;-0.89;84.53;98372.94;5038208;28;19970;-71
2023/02/07 10:37:43;;;;;;;;;;;;;;;-0.65;85.42;98368.06;5043345;28;20382;-71
2023/02/07 10:40:11;;;;;;;;;;;;;;;-0.15;83.03;98369.66;5036947;28;20044;-70
2023/02/07 10:42:37;;;;;;;;;;;;;;;-0.33;82.14;98375.41;5026157;28;19924;-68
2023/02/07 10:45:03;;;;;;;;;;;;;;;-0.43;82.60;98379.63;5042091;28;19970;-66
2023/02/07 10:47:29;;;;;;;;;;;;;;;-0.49;84.35;98367.16;5042774;28;19924;-68
2023/02/07 10:49:55;;;;;;;;;;;;;;;-0.50;82.25;98365.56;5044780;28;19923;-69
2023/02/07 10:52:20;;;;;;;;;;;;;;;-0.11;84.20;98362.72;5059119;28;20014;-70
2023/02/07 10:54:52;;;;;;;;;;;;;;;0.02;82.69;98357.94;5063195;28;19923;-70
2023/02/07 10:57:18;;;;;;;;;;;;;;;0.61;79.52;98363.19;5058760;28;19920;-70
2023/02/07 10:59:47;;;;;;;;;;;;;;;-0.06;82.48;98368.09;5063496;28;19917;-70
2023/02/07 11:02:30;;;;;;;;;;;;;;;-0.60;83.77;98370.84;5055067;28;19986;-70
2023/02/07 11:04:56;;;;;;;;;;;;;;;-0.64;84.23;98367.03;5043365;28;19917;-70
2023/02/07 11:07:21;;;;;;;;;;;;;;;-0.61;84.21;98370.03;5038604;28;20670;-70
2023/02/07 11:09:47;;;;;;;;;;;;;;;-0.78;84.90;98370.09;5058195;28;20007;-69
2023/02/07 11:12:15;;;;;;;;;;;;;;;-0.82;86.45;98376.25;5058451;28;20290;-68
2023/02/07 11:14:57;;;;;;;;;;;;;;;-0.79;86.05;98370.38;5063937;28;19946;-71
2023/02/07 11:17:23;;;;;;;;;;;;;;;-0.93;85.73;98378.00;5058326;28;20712;-69
2023/02/07 11:19:48;;;;;;;;;;;;;;;-1.07;87.70;98369.47;5033576;28;20020;-70
2023/02/07 11:22:17;;;;;;;;;;;;;;;-0.79;85.97;98381.13;5040126;28;19928;-69
2023/02/07 11:24:43;;;;;;;;;;;;;;;-1.08;87.07;98385.88;5044113;28;19921;-71
2023/02/07 11:27:08;;;;;;;;;;;;;;;-0.78;86.52;98378.16;5040230;28;19921;-71
2023/02/07 11:29:37;;;;;;;;;;;;;;;-0.33;85.50;98376.22;5043389;28;19924;-70
2023/02/07 11:32:03;;;;;;;;;;;;;;;-0.24;82.86;98377.38;5022660;28;19917;-67
2023/02/07 11:34:30;;;;;;;;;;;;;;;-0.42;82.39;98380.44;5021629;28;19924;-70
2023/02/07 11:37:14;;;;;;;;;;;;;;;-0.44;84.21;98374.50;5023060;28;19972;-70
2023/02/07 11:39:40;;;;;;;;;;;;;;;-0.03;83.01;98364.91;5042580;28;19927;-69
2023/02/07 11:42:10;;;;;;;;;;;;;;;-0.05;83.55;98377.03;5038569;28;20393;-69
2023/02/07 11:44:39;;;;;;;;;;;;;;;0.54;82.17;98370.69;5058940;28;20025;-70
2023/02/07 11:47:04;;;;;;;;;;;;;;;0.65;81.42;98372.41;5053625;28;20009;-67
2023/02/07 11:49:36;;;;;;;;;;;;;;;-0.65;85.98;98371.59;5042472;28;19960;-70
2023/02/07 11:52:02;;;;;;;;;;;;;;;-0.32;83.82;98368.97;5023207;28;19935;-70
2023/02/07 11:54:28;;;;;;;;;;;;;;;-0.08;83.57;98372.13;5020347;28;20046;-69
2023/02/07 11:57:05;;;;;;;;;;;;;;;-0.60;84.77;98373.53;5022762;28;19921;-70
2023/02/07 11:59:34;;;;;;;;;;;;;;;-0.28;85.28;98376.28;5010394;28;19971;-70
2023/02/07 12:02:05;;;;;;;;;;;;;;;-0.63;83.88;98365.94;5013891;28;19952;-70
2023/02/07 12:04:36;;;;;;;;;;;;;;;-0.64;84.34;98372.41;5030037;28;19994;-70
2023/02/07 12:07:07;;;;;;;;;;;;;;;0.29;83.41;98369.47;5039772;28;19979;-70
2023/02/07 12:09:39;;;;;;;;;;;;;;;0.07;82.49;98383.03;5042673;28;20027;-70
2023/02/07 12:12:10;;;;;;;;;;;;;;;0.74;82.78;98370.84;5037443;28;19924;-70
2023/02/07 12:14:42;;;;;;;;;;;;;;;1.46;76.81;98368.44;5043288;28;19997;-70
2023/02/07 12:17:13;;;;;;;;;;;;;;;2.73;72.24;98376.81;5039691;28;19921;-70
2023/02/07 12:19:48;;;;;;;;;;;;;;;2.73;69.58;98373.31;5042705;28;19940;-69
2023/02/07 12:22:17;;;;;;;;;;;;;;;1.09;80.64;98380.16;5039386;28;19924;-70
2023/02/07 12:24:46;;;;;;;;;;;;;;;1.02;77.45;98373.41;5042585;28;19917;-70
2023/02/07 12:27:15;;;;;;;;;;;;;;;0.34;80.74;98374.06;5037625;28;19920;-68
2023/02/07 12:29:50;;;;;;;;;;;;;;;0.44;80.23;98382.25;5037156;28;19979;-70
2023/02/07 12:32:25;;;;;;;;;;;;;;;0.52;82.08;98384.47;5036050;28;20374;-70
2023/02/07 12:34:59;;;;;;;;;;;;;;;1.38;78.80;98389.72;5041623;28;19917;-69
2023/02/07 12:37:44;;;;;;;;;;;;;;;0.67;78.25;98383.75;5018913;28;19924;-68
2023/02/07 12:40:09;;;;;;;;;;;;;;;0.38;81.29;98369.81;5035542;28;19928;-69
2023/02/07 12:42:41;;;;;;;;;;;;;;;0.55;81.68;98372.34;5042210;28;19920;-71